Time;durP1;ratioP1;P1;durP2;ratioP2;P2;SDS_P1;SDS_P2;PMS_P1;PMS_P2;Temp;Humidity;BMP_temperature;BMP_pressure;BME280_temperature;BME280_humidity;BME280_pressure;Samples;Min_cycle;Max_cycle;Signal;HPM_P1;HPM_P2
2022/01/08 00:02:23;;;;;;;20.30;10.90;;;2.50;99.90;;;;;;5094918;28;20051;-77
2022/01/08 00:04:49;;;;;;;19.67;11.43;;;2.30;99.90;;;;;;5077840;28;20161;-77
2022/01/08 00:07:14;;;;;;;19.97;11.33;;;2.30;99.90;;;;;;5077959;28;20048;-77
2022/01/08 00:09:40;;;;;;;21.20;10.83;;;2.30;99.90;;;;;;5094614;28;20035;-77
2022/01/08 00:12:06;;;;;;;18.37;11.53;;;2.30;99.90;;;;;;5094945;28;20035;-77
2022/01/08 00:14:31;;;;;;;18.03;11.60;;;2.20;99.90;;;;;;5078193;28;20032;-77
2022/01/08 00:16:58;;;;;;;17.47;11.23;;;2.20;99.90;;;;;;5094855;28;20081;-77
2022/01/08 00:19:24;;;;;;;18.97;10.73;;;2.20;99.90;;;;;;5094379;28;20542;-77
2022/01/08 00:21:49;;;;;;;19.77;11.60;;;2.20;99.90;;;;;;5095747;28;20032;-77
2022/01/08 00:24:15;;;;;;;18.17;11.27;;;2.20;99.90;;;;;;5095607;28;20418;-77
2022/01/08 00:26:41;;;;;;;20.20;12.33;;;2.10;99.90;;;;;;5094430;28;20541;-77
2022/01/08 00:29:07;;;;;;;24.87;11.83;;;2.10;99.90;;;;;;5095670;28;20024;-77
2022/01/08 00:31:32;;;;;;;18.53;12.20;;;2.10;99.90;;;;;;5095382;28;20032;-77
2022/01/08 00:33:58;;;;;;;19.13;12.33;;;2.10;99.90;;;;;;5094308;28;20035;-77
2022/01/08 00:36:24;;;;;;;21.93;13.23;;;2.00;99.90;;;;;;5095363;28;20040;-77
2022/01/08 00:38:49;;;;;;;27.80;12.80;;;2.00;99.90;;;;;;5095367;28;20024;-77
2022/01/08 00:41:15;;;;;;;22.00;12.70;;;2.00;99.90;;;;;;5095354;28;20028;-77
2022/01/08 00:43:40;;;;;;;23.43;13.57;;;2.00;99.90;;;;;;5094210;28;20398;-77
2022/01/08 00:46:06;;;;;;;23.57;13.33;;;2.00;99.90;;;;;;5095089;28;20020;-77
2022/01/08 00:48:32;;;;;;;22.60;13.00;;;2.00;99.90;;;;;;5095159;28;20388;-77
2022/01/08 00:50:59;;;;;;;21.90;12.87;;;1.90;99.90;;;;;;5093704;28;20063;-77
2022/01/08 00:53:25;;;;;;;28.23;15.03;;;2.00;99.90;;;;;;5076906;28;20032;-77
2022/01/08 00:55:50;;;;;;;24.47;13.70;;;2.00;99.90;;;;;;5093923;28;20035;-77
2022/01/08 00:58:16;;;;;;;22.47;13.90;;;1.90;99.90;;;;;;5093855;28;20032;-77
2022/01/08 01:00:41;;;;;;;23.60;13.53;;;1.90;99.90;;;;;;5093839;28;20028;-74
2022/01/08 01:03:08;;;;;;;21.93;12.43;;;1.90;99.90;;;;;;5077047;28;20028;-74
2022/01/08 01:05:35;;;;;;;22.47;13.37;;;1.80;99.90;;;;;;5095007;28;20031;-74
2022/01/08 01:08:00;;;;;;;20.77;13.43;;;1.80;99.90;;;;;;5093771;28;20039;-74
2022/01/08 01:10:26;;;;;;;23.47;14.20;;;1.80;99.90;;;;;;5076689;28;20032;-74
2022/01/08 01:12:52;;;;;;;22.47;13.57;;;1.80;99.90;;;;;;5094044;28;20063;-74
2022/01/08 01:15:18;;;;;;;24.70;14.07;;;1.90;99.90;;;;;;5093920;28;20031;-74
2022/01/08 01:17:46;;;;;;;22.43;13.47;;;1.70;99.90;;;;;;5094753;28;20024;-74
2022/01/08 01:20:14;;;;;;;26.43;14.07;;;1.70;99.90;;;;;;5094901;28;20069;-74
2022/01/08 01:25:12;;;;;;;22.10;12.13;;;1.70;99.90;;;;;;5094693;28;20025;-74
2022/01/08 01:42:05;;;;;;;21.23;12.18;;;1.60;99.90;;;;;;5093802;28;20560;-74
2022/01/08 01:49:16;;;;;;;25.00;13.80;;;1.50;99.90;;;;;;5094634;28;20035;-74
2022/01/08 01:51:43;;;;;;;24.43;13.07;;;1.50;99.90;;;;;;5093932;28;20036;-74
2022/01/08 01:54:08;;;;;;;26.03;14.33;;;1.50;99.90;;;;;;5093060;28;20024;-74
2022/01/08 01:56:35;;;;;;;20.27;12.47;;;1.50;99.90;;;;;;5092914;28;20032;-74
2022/01/08 01:59:00;;;;;;;23.60;13.60;;;1.50;99.90;;;;;;5094137;28;20032;-74
2022/01/08 02:01:26;;;;;;;23.00;14.87;;;1.50;99.90;;;;;;5092752;28;20161;-77
2022/01/08 02:03:53;;;;;;;26.37;14.53;;;1.50;99.90;;;;;;5093833;28;20035;-77
2022/01/08 02:06:19;;;;;;;21.90;13.87;;;1.50;99.90;;;;;;5092605;28;20016;-77
2022/01/08 02:08:45;;;;;;;26.30;13.27;;;1.60;99.90;;;;;;5092615;28;20168;-74
2022/01/08 02:11:10;;;;;;;25.43;13.43;;;1.60;99.90;;;;;;5092788;28;20086;-74
2022/01/08 02:13:37;;;;;;;22.23;13.03;;;1.40;99.90;;;;;;5075938;28;20027;-74
2022/01/08 02:16:04;;;;;;;26.53;13.43;;;1.40;99.90;;;;;;5093906;28;20024;-74
2022/01/08 02:18:30;;;;;;;23.07;14.20;;;1.40;99.90;;;;;;5093753;28;20141;-74
2022/01/08 02:21:00;;;;;;;25.80;13.30;;;1.40;99.90;;;;;;5092261;28;20054;-74
2022/01/08 02:23:26;;;;;;;25.33;13.93;;;1.40;99.90;;;;;;5093805;28;20529;-74
2022/01/08 02:26:02;;;;;;;24.70;14.00;;;1.30;99.90;;;;;;5093667;28;20065;-74
2022/01/08 02:28:28;;;;;;;20.37;12.17;;;1.30;99.90;;;;;;5093894;28;20027;-74
2022/01/08 02:30:54;;;;;;;21.93;12.90;;;1.30;99.90;;;;;;5092351;28;20476;-74
2022/01/08 02:33:27;;;;;;;21.07;12.50;;;1.30;99.90;;;;;;5093406;28;20032;-74
2022/01/08 02:35:53;;;;;;;20.95;12.32;;;1.30;99.90;;;;;;5092366;28;20483;-74
2022/01/08 02:38:20;;;;;;;25.60;13.67;;;1.30;99.90;;;;;;5092371;28;20119;-74
2022/01/08 02:41:02;;;;;;;22.17;12.30;;;1.30;99.90;;;;;;5092707;28;20107;-74
2022/01/08 02:43:29;;;;;;;22.13;13.67;;;1.30;99.90;;;;;;5093508;28;20020;-74
2022/01/08 02:45:55;;;;;;;25.27;13.23;;;1.30;99.90;;;;;;5093470;28;20081;-74
2022/01/08 02:48:20;;;;;;;22.57;12.67;;;1.20;99.90;;;;;;5075295;28;20123;-74
2022/01/08 02:50:46;;;;;;;25.53;14.10;;;1.20;99.90;;;;;;5092532;28;20040;-74
2022/01/08 02:53:12;;;;;;;23.97;13.67;;;1.20;99.90;;;;;;5093236;28;20051;-77
2022/01/08 02:55:39;;;;;;;26.03;14.93;;;1.20;99.90;;;;;;5093207;28;20032;-77
2022/01/08 02:58:04;;;;;;;28.63;15.23;;;1.20;99.90;;;;;;5093587;28;20408;-77
2022/01/08 03:00:30;;;;;;;25.43;15.70;;;1.20;99.90;;;;;;5092389;28;20036;-77
2022/01/08 03:02:56;;;;;;;25.70;15.07;;;1.10;99.90;;;;;;5092176;28;20028;-77
2022/01/08 03:05:22;;;;;;;26.40;14.77;;;1.20;99.90;;;;;;5075274;28;20031;-77
2022/01/08 03:07:49;;;;;;;24.17;14.03;;;1.20;99.90;;;;;;5093241;28;20032;-77
2022/01/08 03:10:16;;;;;;;26.37;14.23;;;1.20;99.90;;;;;;5093261;28;20028;-77
2022/01/08 03:12:43;;;;;;;23.83;14.30;;;1.20;99.90;;;;;;5075956;28;20438;-77
2022/01/08 03:15:18;;;;;;;23.20;16.20;;;1.20;99.90;;;;;;5095880;28;20016;-77
2022/01/08 03:17:44;;;;;;;27.37;14.97;;;1.30;99.90;;;;;;5097022;28;20053;-77
2022/01/08 03:20:13;;;;;;;23.40;14.47;;;1.30;99.90;;;;;;5095829;28;20028;-77
2022/01/08 03:22:42;;;;;;;25.80;14.67;;;1.40;99.90;;;;;;5096855;28;20095;-77
2022/01/08 03:25:08;;;;;;;24.00;14.67;;;1.40;99.90;;;;;;5097324;28;20099;-77
2022/01/08 03:27:34;;;;;;;23.50;14.37;;;1.40;99.90;;;;;;5095494;28;20031;-77
2022/01/08 03:30:00;;;;;;;24.03;14.50;;;1.40;99.90;;;;;;5078509;28;20491;-77
2022/01/08 03:32:26;;;;;;;22.50;13.77;;;1.40;99.90;;;;;;5096090;28;20035;-77
2022/01/08 03:34:52;;;;;;;25.53;11.77;;;1.40;99.90;;;;;;5096993;28;20252;-77
2022/01/08 03:37:18;;;;;;;30.87;14.20;;;1.40;99.90;;;;;;5078994;28;20032;-77
2022/01/08 03:39:44;;;;;;;24.93;14.83;;;1.40;99.90;;;;;;5095307;28;20506;-77
2022/01/08 03:42:10;;;;;;;22.27;14.13;;;1.40;99.90;;;;;;5096471;28;20491;-77
2022/01/08 03:44:36;;;;;;;20.13;13.03;;;1.50;99.90;;;;;;5095132;28;20024;-77
2022/01/08 03:47:23;;;;;;;22.17;12.93;;;1.50;99.90;;;;;;5095388;28;20028;-77
2022/01/08 03:49:47;;;;;;;21.37;11.57;;;1.40;99.90;;;;;;5096439;28;20518;-77
2022/01/08 03:52:13;;;;;;;21.43;11.97;;;1.40;99.90;;;;;;5095403;28;20131;-77
2022/01/08 03:54:39;;;;;;;25.70;12.27;;;1.40;99.90;;;;;;5078686;28;20028;-77
2022/01/08 03:57:05;;;;;;;21.53;12.00;;;1.40;99.90;;;;;;5078185;28;20077;-77
2022/01/08 03:59:31;;;;;;;20.17;12.27;;;1.40;99.90;;;;;;5096208;28;20032;-77
2022/01/08 04:01:57;;;;;;;20.00;10.77;;;1.40;99.90;;;;;;5096344;28;20036;-76
2022/01/08 04:04:22;;;;;;;18.97;11.43;;;1.30;99.90;;;;;;5095328;28;20035;-77
2022/01/08 04:06:48;;;;;;;20.50;11.93;;;1.30;99.90;;;;;;5078271;28;20020;-77
2022/01/08 04:09:14;;;;;;;18.37;11.60;;;1.30;99.90;;;;;;5094926;28;20020;-77
2022/01/08 04:11:40;;;;;;;22.70;11.63;;;1.30;99.90;;;;;;5078033;28;20024;-77
2022/01/08 04:14:06;;;;;;;24.37;11.50;;;1.20;99.90;;;;;;5094651;28;20025;-77
2022/01/08 04:16:34;;;;;;;20.53;11.00;;;1.20;99.90;;;;;;5077850;28;20113;-77
2022/01/08 04:19:00;;;;;;;18.20;10.33;;;1.20;99.90;;;;;;5094469;28;20054;-77
2022/01/08 04:23:53;;;;;;;17.30;10.50;;;1.20;99.90;;;;;;5095561;28;20024;-77
2022/01/08 04:26:21;;;;;;;22.30;12.03;;;1.10;99.90;;;;;;5096025;28;20461;-77
2022/01/08 04:28:48;;;;;;;22.47;10.87;;;1.10;99.90;;;;;;5094378;28;20157;-77
2022/01/08 04:31:13;;;;;;;20.73;11.17;;;1.10;99.90;;;;;;5077710;28;20028;-77
2022/01/08 04:33:39;;;;;;;21.23;10.30;;;1.10;99.90;;;;;;5094331;28;20037;-77
2022/01/08 04:36:05;;;;;;;18.93;10.17;;;1.10;99.90;;;;;;5095649;28;20040;-77
2022/01/08 04:38:32;;;;;;;23.53;11.20;;;1.10;99.90;;;;;;5077369;28;20513;-77
2022/01/08 04:40:57;;;;;;;18.83;10.20;;;1.10;99.90;;;;;;5094083;28;20491;-77
2022/01/08 04:43:23;;;;;;;19.43;9.80;;;1.10;99.90;;;;;;5094111;28;20025;-77
2022/01/08 04:45:50;;;;;;;19.53;10.47;;;1.10;99.90;;;;;;5077285;28;20032;-77
2022/01/08 04:48:16;;;;;;;20.80;9.73;;;1.10;99.90;;;;;;5094126;28;20410;-77
2022/01/08 04:50:41;;;;;;;20.17;9.60;;;1.10;99.90;;;;;;5077150;28;20039;-77
2022/01/08 04:53:07;;;;;;;17.97;9.10;;;1.10;99.90;;;;;;5095209;28;20093;-77
2022/01/08 04:55:33;;;;;;;17.83;9.10;;;1.00;99.90;;;;;;5076982;28;20122;-77
2022/01/08 04:57:58;;;;;;;18.40;9.10;;;1.00;99.90;;;;;;5095092;28;20364;-77
2022/01/08 05:00:24;;;;;;;18.10;9.13;;;1.00;99.90;;;;;;5093755;28;20365;-77
2022/01/08 05:02:50;;;;;;;16.10;8.87;;;1.00;99.90;;;;;;5094038;28;20152;-77
2022/01/08 05:05:16;;;;;;;18.47;9.30;;;0.90;99.90;;;;;;5094953;28;20028;-77
2022/01/08 05:07:41;;;;;;;19.73;9.67;;;1.00;99.90;;;;;;5076843;28;20028;-77
2022/01/08 05:10:08;;;;;;;18.97;9.87;;;1.00;99.90;;;;;;5093805;28;20028;-77
2022/01/08 05:12:34;;;;;;;17.60;8.37;;;0.90;99.90;;;;;;5094073;28;20107;-77
2022/01/08 05:15:01;;;;;;;17.33;8.37;;;0.90;99.90;;;;;;5093396;28;20117;-77
2022/01/08 05:17:32;;;;;;;20.87;9.63;;;0.90;99.90;;;;;;5094631;28;20464;-77
2022/01/08 05:20:01;;;;;;;18.50;10.23;;;0.90;99.90;;;;;;5094665;28;20035;-77
2022/01/08 05:22:29;;;;;;;18.47;9.93;;;0.90;99.90;;;;;;5093828;28;20020;-77
2022/01/08 05:24:56;;;;;;;20.40;9.43;;;0.90;99.90;;;;;;5077041;28;20031;-77
2022/01/08 05:27:23;;;;;;;16.53;9.03;;;0.80;99.90;;;;;;5093400;28;20046;-77
2022/01/08 05:29:50;;;;;;;23.33;9.80;;;0.90;99.90;;;;;;5093170;28;20484;-77
2022/01/08 05:32:17;;;;;;;15.10;8.63;;;0.90;99.90;;;;;;5093169;28;20035;-74
2022/01/08 05:34:47;;;;;;;20.97;9.93;;;0.80;99.90;;;;;;5076497;28;20368;-74
2022/01/08 05:37:13;;;;;;;20.73;8.90;;;0.90;99.90;;;;;;5094092;28;20030;-74
2022/01/08 05:39:40;;;;;;;18.27;8.67;;;0.90;99.90;;;;;;5076282;28;20051;-74
2022/01/08 05:42:06;;;;;;;18.50;8.80;;;0.80;99.90;;;;;;5076108;28;20077;-74
2022/01/08 05:44:32;;;;;;;23.27;9.67;;;0.80;99.90;;;;;;5076270;28;20020;-74
2022/01/08 05:46:57;;;;;;;19.97;9.50;;;0.80;99.90;;;;;;5093112;28;20035;-74
2022/01/08 05:49:23;;;;;;;22.40;9.37;;;0.80;99.90;;;;;;5094452;28;20111;-74
2022/01/08 05:51:49;;;;;;;18.40;9.07;;;0.80;99.90;;;;;;5092906;28;20048;-74
2022/01/08 05:54:14;;;;;;;17.07;8.93;;;0.80;99.90;;;;;;5093047;28;20105;-74
2022/01/08 05:56:40;;;;;;;15.20;8.53;;;0.80;99.90;;;;;;5093015;28;20115;-74
2022/01/08 05:59:05;;;;;;;20.17;8.67;;;0.80;99.90;;;;;;5094422;28;20044;-74
2022/01/08 06:01:34;;;;;;;16.00;8.23;;;0.80;99.90;;;;;;5093054;28;20036;-74
2022/01/08 06:04:03;;;;;;;16.33;8.20;;;0.80;99.90;;;;;;5093885;28;20020;-74
2022/01/08 06:06:29;;;;;;;18.57;8.47;;;0.80;99.90;;;;;;5092620;28;20024;-74
2022/01/08 06:08:55;;;;;;;17.17;8.80;;;0.80;99.90;;;;;;5093047;28;20038;-74
2022/01/08 06:11:20;;;;;;;17.97;9.80;;;0.80;99.90;;;;;;5097077;28;20063;-74
2022/01/08 06:13:46;;;;;;;18.93;10.10;;;0.80;99.90;;;;;;5100332;28;20067;-74
2022/01/08 06:16:12;;;;;;;25.70;10.43;;;0.90;99.90;;;;;;5097326;28;20063;-74
2022/01/08 06:18:39;;;;;;;20.20;9.13;;;0.80;99.90;;;;;;5102170;28;20061;-75
2022/01/08 06:21:05;;;;;;;20.87;10.17;;;0.80;99.90;;;;;;5093918;28;20042;-74
2022/01/08 06:23:31;;;;;;;23.20;9.30;;;0.80;99.90;;;;;;5108599;28;20111;-74
2022/01/08 06:25:57;;;;;;;23.77;9.47;;;0.80;99.90;;;;;;5093440;28;20099;-74
2022/01/08 06:28:22;;;;;;;19.83;8.40;;;0.80;99.90;;;;;;5091990;28;20055;-74
2022/01/08 06:30:48;;;;;;;15.33;8.57;;;0.80;99.90;;;;;;5093399;28;20028;-74
2022/01/08 06:33:15;;;;;;;16.10;7.83;;;0.80;99.90;;;;;;5093733;28;20461;-74
2022/01/08 06:35:41;;;;;;;17.53;8.57;;;0.80;99.90;;;;;;5093719;28;20028;-74
2022/01/08 06:38:07;;;;;;;16.80;8.53;;;0.80;99.90;;;;;;5075271;28;20411;-74
2022/01/08 06:40:32;;;;;;;18.23;8.80;;;0.80;99.90;;;;;;5092516;28;20035;-74
2022/01/08 06:42:58;;;;;;;18.93;8.80;;;0.80;99.90;;;;;;5093720;28;20121;-74
2022/01/08 06:45:24;;;;;;;17.17;7.77;;;0.80;99.90;;;;;;5092160;28;20021;-74
2022/01/08 06:47:49;;;;;;;17.10;7.97;;;0.80;99.90;;;;;;5094444;28;20111;-74
2022/01/08 06:50:15;;;;;;;18.20;8.63;;;0.80;99.90;;;;;;5096536;28;20067;-74
2022/01/08 06:52:41;;;;;;;18.43;8.47;;;0.80;99.90;;;;;;5096108;28;20082;-74
2022/01/08 06:55:07;;;;;;;22.33;8.70;;;0.80;99.90;;;;;;5096278;28;20032;-74
2022/01/08 06:57:33;;;;;;;17.47;8.30;;;0.80;99.90;;;;;;5097304;28;20078;-74
2022/01/08 07:00:01;;;;;;;20.20;8.20;;;0.80;99.90;;;;;;5096330;28;20426;-74
2022/01/08 07:02:27;;;;;;;17.60;9.60;;;0.80;99.90;;;;;;5079371;28;20124;-74
2022/01/08 07:04:52;;;;;;;22.40;9.80;;;0.80;99.90;;;;;;5095844;28;20115;-74
2022/01/08 07:07:18;;;;;;;27.17;10.10;;;0.90;99.90;;;;;;5079209;28;20032;-74
2022/01/08 07:09:44;;;;;;;23.13;10.10;;;0.90;99.90;;;;;;5095998;28;20403;-75
2022/01/08 07:12:09;;;;;;;18.40;9.80;;;1.00;99.90;;;;;;5095925;28;20115;-74
2022/01/08 07:14:35;;;;;;;19.17;9.43;;;1.00;99.90;;;;;;5095711;28;20028;-75
2022/01/08 07:17:01;;;;;;;25.10;10.17;;;1.00;99.90;;;;;;5095486;28;20036;-75
2022/01/08 07:19:26;;;;;;;19.83;9.20;;;1.00;99.90;;;;;;5095462;28;20020;-75
2022/01/08 07:21:52;;;;;;;18.60;9.40;;;1.00;99.90;;;;;;5095618;28;20437;-75
2022/01/08 07:24:18;;;;;;;25.10;10.60;;;1.00;99.90;;;;;;5106334;28;20043;-75
2022/01/08 07:26:43;;;;;;;19.10;9.90;;;1.00;99.90;;;;;;5095118;28;20023;-75
2022/01/08 07:29:09;;;;;;;22.80;11.37;;;1.10;99.90;;;;;;5115462;28;20042;-74
2022/01/08 07:31:35;;;;;;;24.57;10.67;;;1.10;99.90;;;;;;5095278;28;20036;-74
2022/01/08 07:34:00;;;;;;;24.17;11.43;;;1.10;99.90;;;;;;5078730;28;20028;-74
2022/01/08 07:36:26;;;;;;;24.03;11.70;;;1.10;99.90;;;;;;5097087;28;20479;-74
2022/01/08 07:38:52;;;;;;;27.27;12.40;;;1.10;99.90;;;;;;5096839;28;20521;-74
2022/01/08 07:41:17;;;;;;;25.03;12.10;;;1.20;99.90;;;;;;5095513;28;20048;-74
2022/01/08 07:43:43;;;;;;;22.70;12.17;;;1.20;99.90;;;;;;5093080;28;20022;-74
2022/01/08 07:46:09;;;;;;;24.63;13.43;;;1.20;99.90;;;;;;5114984;28;20032;-74
2022/01/08 07:48:34;;;;;;;26.07;13.10;;;1.30;99.90;;;;;;5094798;28;20570;-74
2022/01/08 07:51:01;;;;;;;22.10;11.90;;;1.30;99.90;;;;;;5098773;28;20119;-74
2022/01/08 07:53:27;;;;;;;21.60;12.47;;;1.30;99.90;;;;;;5116470;28;20050;-74
2022/01/08 07:55:52;;;;;;;21.73;12.37;;;1.40;99.90;;;;;;5115837;28;20438;-74
2022/01/08 07:58:20;;;;;;;21.80;12.50;;;1.40;99.90;;;;;;5115175;28;20519;-74
2022/01/08 08:00:50;;;;;;;24.70;11.90;;;1.40;99.90;;;;;;5114807;28;20483;-74
2022/01/08 08:03:16;;;;;;;24.53;12.00;;;1.40;99.90;;;;;;5116640;28;20528;-74
2022/01/08 08:05:41;;;;;;;23.53;12.10;;;1.40;99.90;;;;;;5116797;28;20028;-74
2022/01/08 08:08:07;;;;;;;26.80;13.37;;;1.50;99.90;;;;;;5115657;28;20039;-74
2022/01/08 08:10:32;;;;;;;34.10;14.13;;;1.60;99.90;;;;;;5116897;28;20036;-74
2022/01/08 08:12:58;;;;;;;27.13;12.70;;;1.60;99.90;;;;;;5114970;28;20042;-74
2022/01/08 08:15:25;;;;;;;21.27;12.93;;;1.60;99.90;;;;;;5115359;28;20412;-75
2022/01/08 08:17:52;;;;;;;24.77;14.67;;;1.60;99.90;;;;;;5115331;28;20452;-74
2022/01/08 08:20:18;;;;;;;23.97;12.77;;;1.70;99.90;;;;;;5116380;28;20036;-73
2022/01/08 08:22:44;;;;;;;24.97;13.43;;;1.70;99.90;;;;;;5116173;28;20046;-74
2022/01/08 08:25:11;;;;;;;22.87;13.10;;;1.80;99.90;;;;;;5114765;28;20512;-73
2022/01/08 08:27:39;;;;;;;19.87;13.03;;;1.80;99.90;;;;;;5115079;28;20024;-74
2022/01/08 08:30:06;;;;;;;25.30;14.70;;;1.80;99.90;;;;;;5115930;28;20059;-73
2022/01/08 08:32:31;;;;;;;22.50;14.07;;;1.90;99.90;;;;;;5114870;28;20487;-73
2022/01/08 08:34:57;;;;;;;22.53;13.83;;;1.90;99.90;;;;;;5114818;28;20027;-74
2022/01/08 08:37:23;;;;;;;25.47;13.97;;;1.90;99.90;;;;;;5114448;28;20038;-73
2022/01/08 08:39:49;;;;;;;23.70;13.70;;;1.90;99.90;;;;;;5114788;28;20083;-73
2022/01/08 08:42:15;;;;;;;23.70;13.50;;;2.00;99.90;;;;;;5114602;28;20464;-73
2022/01/08 08:44:41;;;;;;;23.07;13.63;;;2.10;99.90;;;;;;5115738;28;20027;-73
2022/01/08 08:47:07;;;;;;;24.93;13.67;;;2.00;99.90;;;;;;5112991;28;20047;-73
2022/01/08 08:49:33;;;;;;;19.73;13.17;;;2.00;99.90;;;;;;5114679;28;20039;-73
2022/01/08 08:51:59;;;;;;;22.87;13.33;;;2.10;99.90;;;;;;5097358;28;20075;-73
2022/01/08 08:54:25;;;;;;;22.77;13.37;;;2.10;99.90;;;;;;5114305;28;20104;-73
2022/01/08 08:56:51;;;;;;;26.43;14.13;;;2.20;99.90;;;;;;5114491;28;20124;-73
2022/01/08 08:59:16;;;;;;;28.67;13.80;;;2.20;99.90;;;;;;5114517;28;20035;-73
2022/01/08 09:01:42;;;;;;;22.60;12.63;;;2.20;99.90;;;;;;5114572;28;20028;-73
2022/01/08 09:04:08;;;;;;;29.10;13.57;;;2.20;99.90;;;;;;5115694;28;20361;-73
2022/01/08 09:06:33;;;;;;;26.23;14.40;;;2.20;99.90;;;;;;5115631;28;20490;-74
2022/01/08 09:09:00;;;;;;;26.13;14.10;;;2.30;99.90;;;;;;5115870;28;20531;-74
2022/01/08 09:11:26;;;;;;;26.67;13.87;;;2.30;99.90;;;;;;5112886;28;20455;-74
2022/01/08 09:13:52;;;;;;;24.83;13.37;;;2.30;99.90;;;;;;5115454;28;20464;-75
2022/01/08 09:16:18;;;;;;;20.27;13.60;;;2.30;99.90;;;;;;5114053;28;20143;-74
2022/01/08 09:18:44;;;;;;;26.47;13.67;;;2.30;99.90;;;;;;5115260;28;20376;-73
2022/01/08 09:21:10;;;;;;;25.40;12.67;;;2.30;99.90;;;;;;5113601;28;20361;-74
2022/01/08 09:23:37;;;;;;;28.70;12.93;;;2.30;99.90;;;;;;5114094;28;20023;-73
2022/01/08 09:26:03;;;;;;;24.00;12.53;;;2.30;99.90;;;;;;5115020;28;20016;-74
2022/01/08 09:28:30;;;;;;;25.30;13.17;;;2.40;99.90;;;;;;5115055;28;20032;-73
2022/01/08 09:30:56;;;;;;;25.23;12.90;;;2.40;99.90;;;;;;5114814;28;20544;-73
2022/01/08 09:33:22;;;;;;;23.10;12.53;;;2.40;99.90;;;;;;5115026;28;20023;-74
2022/01/08 09:35:48;;;;;;;28.17;12.50;;;2.40;99.90;;;;;;5096275;28;20498;-73
2022/01/08 09:38:14;;;;;;;21.73;11.97;;;2.50;99.90;;;;;;5114971;28;20114;-74
2022/01/08 09:40:39;;;;;;;26.23;12.53;;;2.50;99.90;;;;;;5113693;28;20028;-73
2022/01/08 09:43:05;;;;;;;25.63;13.03;;;2.60;99.90;;;;;;5113695;28;20116;-73
2022/01/08 09:45:31;;;;;;;23.90;11.90;;;2.50;99.90;;;;;;5096537;28;20024;-72
2022/01/08 09:47:57;;;;;;;25.63;12.57;;;2.60;99.90;;;;;;5114779;28;20023;-73
2022/01/08 09:50:23;;;;;;;27.83;12.17;;;2.60;99.90;;;;;;5113269;28;20031;-73
2022/01/08 09:52:53;;;;;;;22.90;12.23;;;2.60;99.90;;;;;;5114490;28;20054;-73
2022/01/08 09:55:19;;;;;;;23.63;11.50;;;2.60;99.90;;;;;;5114228;28;20564;-73
2022/01/08 09:57:45;;;;;;;24.47;11.53;;;2.70;99.90;;;;;;5095469;28;20119;-73
2022/01/08 10:00:16;;;;;;;18.83;11.70;;;2.70;99.90;;;;;;5093213;28;20039;-73
2022/01/08 10:02:44;;;;;;;26.27;12.67;;;2.80;99.90;;;;;;5092505;28;20350;-74
2022/01/08 10:05:12;;;;;;;24.37;12.27;;;2.90;99.90;;;;;;5094196;28;20044;-74
2022/01/08 10:07:37;;;;;;;20.83;11.03;;;2.80;99.90;;;;;;5092765;28;20111;-72
2022/01/08 10:10:12;;;;;;;28.93;11.70;;;2.90;99.90;;;;;;5093912;28;20109;-73
2022/01/08 10:12:41;;;;;;;22.93;12.17;;;2.90;99.90;;;;;;5093689;28;20028;-74
2022/01/08 10:17:51;;;;;;;21.03;11.73;;;3.00;99.90;;;;;;5092769;28;20039;-78
2022/01/08 10:20:37;;;;;;;22.47;12.13;;;3.00;99.90;;;;;;5093589;28;20024;-78
2022/01/08 10:23:11;;;;;;;24.10;13.10;;;3.10;99.90;;;;;;5076542;28;20012;-78
2022/01/08 10:25:39;;;;;;;25.13;12.90;;;3.10;99.90;;;;;;5092048;28;20020;-77
2022/01/08 10:28:05;;;;;;;22.70;12.80;;;3.10;99.90;;;;;;5093490;28;20476;-78
2022/01/08 10:30:30;;;;;;;25.97;14.00;;;3.20;99.90;;;;;;5092267;28;20221;-78
2022/01/08 10:33:01;;;;;;;24.93;13.13;;;3.30;99.90;;;;;;5075160;28;20384;-78
2022/01/08 10:35:51;;;;;;;28.53;14.07;;;3.30;99.90;;;;;;5091975;28;20020;-78
2022/01/08 10:38:17;;;;;;;27.37;13.13;;;3.40;99.90;;;;;;5084886;28;20105;-78
2022/01/08 10:40:43;;;;;;;26.90;13.33;;;3.40;99.90;;;;;;5111527;28;20090;-78
2022/01/08 10:43:41;;;;;;;26.53;12.47;;;3.50;99.90;;;;;;5112371;28;20027;-78
2022/01/08 10:46:27;;;;;;;22.80;11.43;;;3.50;99.90;;;;;;5068705;28;20039;-74
2022/01/08 10:48:53;;;;;;;25.00;12.93;;;3.60;99.90;;;;;;5113083;28;20035;-74
2022/01/08 10:51:26;;;;;;;26.80;13.40;;;3.70;99.90;;;;;;5112381;28;20501;-74
2022/01/08 10:54:03;;;;;;;29.63;14.60;;;3.70;99.90;;;;;;5112464;28;20084;-75
2022/01/08 10:56:46;;;;;;;26.77;12.77;;;3.80;99.90;;;;;;5112083;28;20111;-77
2022/01/08 10:59:23;;;;;;;24.40;13.17;;;3.90;99.90;;;;;;5113495;28;20387;-74
2022/01/08 11:02:04;;;;;;;24.60;14.07;;;4.00;99.90;;;;;;5112078;28;20110;-74
2022/01/08 11:04:52;;;;;;;25.93;13.97;;;4.00;99.90;;;;;;5112056;28;20391;-74
2022/01/08 11:07:24;;;;;;;33.50;14.27;;;4.10;99.90;;;;;;5112315;28;20024;-75
2022/01/08 11:10:04;;;;;;;25.90;14.40;;;4.10;99.90;;;;;;5111933;28;20085;-74
2022/01/08 11:12:36;;;;;;;26.17;16.13;;;4.10;99.90;;;;;;5112281;28;20168;-74
2022/01/08 11:17:44;;;;;;;31.00;16.23;;;4.10;99.90;;;;;;5113799;28;20032;-76
2022/01/08 11:20:12;;;;;;;31.33;16.37;;;4.20;99.90;;;;;;5112436;28;20032;-74
2022/01/08 11:22:44;;;;;;;28.20;15.83;;;4.20;99.90;;;;;;5113345;28;20034;-72
2022/01/08 11:25:21;;;;;;;28.87;16.60;;;4.10;99.90;;;;;;5112089;28;20023;-75
2022/01/08 11:28:10;;;;;;;30.87;16.10;;;4.10;99.90;;;;;;5112882;28;20031;-74
2022/01/08 11:30:38;;;;;;;30.60;14.57;;;4.20;99.90;;;;;;5108037;28;20092;-74
2022/01/08 11:33:12;;;;;;;29.90;15.03;;;4.20;99.90;;;;;;5111948;28;20016;-75
2022/01/08 11:35:38;;;;;;;29.88;14.90;;;4.30;99.90;;;;;;5116631;28;20023;-76
2022/01/08 11:38:07;;;;;;;26.73;14.40;;;4.30;99.50;;;;;;5115843;28;20060;-74
2022/01/08 11:40:34;;;;;;;28.93;15.37;;;4.30;99.60;;;;;;5116029;28;20023;-76
2022/01/08 11:43:02;;;;;;;30.53;14.37;;;4.30;99.50;;;;;;5115765;28;20480;-76
2022/01/08 11:45:38;;;;;;;29.37;15.60;;;4.40;99.50;;;;;;5117081;28;20368;-74
2022/01/08 11:48:07;;;;;;;30.43;15.93;;;4.40;99.40;;;;;;5115813;28;20425;-74
2022/01/08 11:50:33;;;;;;;26.87;14.37;;;4.40;99.20;;;;;;5116679;28;20539;-75
2022/01/08 11:53:22;;;;;;;24.00;14.13;;;4.50;99.30;;;;;;5116828;27;20043;-74
2022/01/08 11:55:53;;;;;;;29.77;14.67;;;4.40;99.30;;;;;;5115392;28;20486;-77
2022/01/08 11:59:00;;;;;;;29.23;13.70;;;4.40;99.20;;;;;;5115513;28;20024;-75
2022/01/08 12:01:25;;;;;;;27.33;13.53;;;4.40;99.20;;;;;;5116074;28;20024;-75
2022/01/08 12:03:53;;;;;;;29.37;13.63;;;4.50;99.30;;;;;;5115221;28;20030;-74
2022/01/08 12:06:19;;;;;;;27.47;14.47;;;4.50;99.10;;;;;;5098346;28;20068;-75
2022/01/08 12:09:07;;;;;;;30.80;13.70;;;4.70;99.10;;;;;;5116623;28;20031;-78
2022/01/08 12:11:36;;;;;;;30.20;13.37;;;4.60;99.10;;;;;;5115596;28;20084;-76
2022/01/08 12:14:09;;;;;;;24.47;12.93;;;4.60;98.90;;;;;;5116948;28;20050;-75
2022/01/08 12:16:38;;;;;;;27.38;13.40;;;4.60;98.90;;;;;;5098195;28;20145;-75
2022/01/08 12:19:05;;;;;;;22.67;12.00;;;4.60;98.80;;;;;;5114733;28;20027;-75
2022/01/08 12:21:32;;;;;;;23.23;12.00;;;4.60;98.70;;;;;;5116217;28;20027;-76
2022/01/08 12:24:01;;;;;;;25.10;11.90;;;4.60;98.80;;;;;;5115688;28;20106;-74
2022/01/08 12:26:26;;;;;;;22.63;12.30;;;4.60;98.80;;;;;;5098136;28;20024;-77
2022/01/08 12:29:02;;;;;;;24.47;11.40;;;4.60;98.70;;;;;;5115245;28;20034;-75
2022/01/08 12:34:25;;;;;;;24.77;11.00;;;4.60;98.50;;;;;;5114974;28;20119;-75
2022/01/08 12:36:54;;;;;;;24.73;11.27;;;4.60;98.40;;;;;;5114301;28;20138;-75
2022/01/08 12:39:41;;;;;;;18.37;9.97;;;4.60;98.30;;;;;;5114481;28;20034;-74
2022/01/08 12:42:19;;;;;;;20.93;10.10;;;4.60;98.30;;;;;;5114612;28;20403;-74
2022/01/08 12:45:13;;;;;;;23.73;10.73;;;4.60;98.30;;;;;;5115406;28;20024;-74
2022/01/08 12:48:13;;;;;;;23.03;10.17;;;4.60;98.30;;;;;;5115586;28;20020;-75
2022/01/08 12:50:53;;;;;;;23.27;10.47;;;4.60;98.20;;;;;;5114074;28;20023;-75
2022/01/08 12:53:26;;;;;;;18.90;9.10;;;4.60;98.10;;;;;;5115120;28;20039;-75
2022/01/08 12:55:55;;;;;;;20.65;10.00;;;4.60;98.00;;;;;;5113795;28;20023;-73
2022/01/08 12:58:25;;;;;;;21.87;10.50;;;4.60;98.00;;;;;;5115391;28;20019;-73
2022/01/08 13:01:05;;;;;;;17.73;9.37;;;4.60;97.80;;;;;;5115112;28;20028;-72
2022/01/08 13:03:34;;;;;;;17.97;9.00;;;4.60;97.60;;;;;;5115167;28;20496;-73
2022/01/08 13:06:21;;;;;;;15.67;8.73;;;4.60;97.70;;;;;;5115048;28;20423;-73
2022/01/08 13:08:49;;;;;;;16.73;7.73;;;4.70;97.70;;;;;;5112895;28;20543;-72
2022/01/08 13:11:28;;;;;;;20.27;8.43;;;4.60;98.00;;;;;;5097043;28;20160;-72
2022/01/08 13:14:00;;;;;;;17.37;8.93;;;4.60;98.10;;;;;;5115130;28;20031;-72
2022/01/08 13:16:39;;;;;;;16.23;7.33;;;4.60;98.10;;;;;;5113993;28;20023;-76